createdAt,value
2018-05-15T00:00:01.333Z,21.3
2018-05-15T00:00:27.471Z,21.33
2018-05-15T00:00:53.653Z,21.29
2018-05-15T00:01:19.903Z,21.32
2018-05-15T00:01:46.120Z,21.25
2018-05-15T00:02:12.452Z,21.25
2018-05-15T00:02:38.673Z,21.35
2018-05-15T00:03:04.874Z,21.29
2018-05-15T00:03:31.135Z,21.3
2018-05-15T00:03:57.260Z,21.33
2018-05-15T00:04:23.417Z,21.24
2018-05-15T00:04:49.600Z,21.27
2018-05-15T00:05:15.732Z,21.21
2018-05-15T00:05:41.909Z,21.18
2018-05-15T00:06:08.157Z,21.24
2018-05-15T00:06:34.338Z,21.15
2018-05-15T00:07:00.631Z,21.18
2018-05-15T00:07:26.816Z,21.09
2018-05-15T00:07:52.940Z,21.12
2018-05-15T00:08:19.129Z,21.12
2018-05-15T00:08:45.290Z,21.14
2018-05-15T00:09:11.562Z,21.09
2018-05-15T00:09:37.789Z,21.09
2018-05-15T00:10:03.943Z,21.18
2018-05-15T00:10:30.126Z,21.05
2018-05-15T00:10:56.298Z,21.12
2018-05-15T00:11:22.461Z,21.12
2018-05-15T00:11:48.663Z,21.09
2018-05-15T00:12:14.988Z,21.06
2018-05-15T00:12:41.130Z,21.11
2018-05-15T00:13:07.348Z,21.14
2018-05-15T00:13:33.493Z,21.05
2018-05-15T00:13:59.678Z,21.06
2018-05-15T00:14:25.904Z,21.03
2018-05-15T00:14:51.956Z,21.02
2018-05-15T00:15:18.276Z,21.06
2018-05-15T00:15:44.433Z,21.05
2018-05-15T00:16:10.578Z,21.07
2018-05-15T00:16:36.729Z,20.95
2018-05-15T00:17:02.900Z,20.96
2018-05-15T00:17:29.083Z,20.9
2018-05-15T00:17:55.273Z,20.96
2018-05-15T00:18:21.431Z,21.03
2018-05-15T00:18:47.574Z,20.99
2018-05-15T00:19:13.735Z,20.92
2018-05-15T00:19:39.862Z,20.92
2018-05-15T00:20:06.027Z,20.99
2018-05-15T00:20:32.165Z,20.96
2018-05-15T00:20:58.328Z,20.95
2018-05-15T00:21:24.544Z,20.9
2018-05-15T00:21:50.687Z,20.87
2018-05-15T00:22:16.839Z,20.81
2018-05-15T00:22:43.205Z,20.8
2018-05-15T00:23:09.291Z,20.78
2018-05-15T00:23:35.426Z,20.81
2018-05-15T00:24:01.775Z,20.78
2018-05-15T00:24:28.094Z,20.69
2018-05-15T00:24:54.160Z,20.81
2018-05-15T00:25:20.381Z,20.78
2018-05-15T00:25:46.814Z,20.7
2018-05-15T00:26:12.935Z,20.69
2018-05-15T00:26:39.064Z,20.66
2018-05-15T00:27:05.189Z,20.65
2018-05-15T00:27:31.341Z,20.69
2018-05-15T00:27:57.515Z,20.66
2018-05-15T00:28:23.671Z,20.66
2018-05-15T00:28:49.890Z,20.67
2018-05-15T00:29:16.121Z,20.67
2018-05-15T00:29:42.389Z,20.69
2018-05-15T00:30:08.634Z,20.66
2018-05-15T00:30:34.719Z,20.56
2018-05-15T00:31:01.007Z,20.48
2018-05-15T00:31:27.158Z,20.47
2018-05-15T00:31:53.512Z,20.39
2018-05-15T00:32:19.688Z,20.43
2018-05-15T00:32:45.844Z,20.48
2018-05-15T00:33:12.000Z,20.48
2018-05-15T00:33:38.199Z,20.4
2018-05-15T00:34:04.330Z,20.41
2018-05-15T00:34:30.474Z,20.4
2018-05-15T00:34:56.667Z,20.4
2018-05-15T00:35:22.796Z,20.44
2018-05-15T00:35:48.941Z,20.52
2018-05-15T00:36:15.070Z,20.41
2018-05-15T00:36:41.197Z,20.41
2018-05-15T00:37:07.352Z,20.5
2018-05-15T00:37:33.490Z,20.5
2018-05-15T00:37:59.622Z,20.39
2018-05-15T00:38:25.791Z,20.4
2018-05-15T00:38:51.915Z,20.26
2018-05-15T00:39:18.063Z,20.32
2018-05-15T00:39:44.187Z,20.31
2018-05-15T00:40:10.315Z,20.37
2018-05-15T00:40:36.460Z,20.26
2018-05-15T00:41:02.585Z,20.28
2018-05-15T00:41:28.711Z,20.29
2018-05-15T00:41:54.835Z,20.29
2018-05-15T00:42:20.965Z,20.31
2018-05-15T00:42:47.108Z,20.31
2018-05-15T00:43:13.235Z,20.32
2018-05-15T00:43:39.361Z,20.29
2018-05-15T00:44:05.504Z,20.29
2018-05-15T00:44:31.646Z,20.29
2018-05-15T00:44:57.771Z,20.26
2018-05-15T00:45:23.895Z,20.28
2018-05-15T00:45:50.022Z,20.24
2018-05-15T00:46:16.168Z,20.18
2018-05-15T00:46:42.295Z,20.13
2018-05-15T00:47:08.443Z,20.11
2018-05-15T00:47:34.601Z,20.16
2018-05-15T00:48:00.736Z,20.13
2018-05-15T00:48:26.864Z,20.18
2018-05-15T00:48:53.010Z,20.19
2018-05-15T00:49:19.137Z,20.19
2018-05-15T00:49:45.299Z,20.14
2018-05-15T00:50:11.446Z,20.21
2018-05-15T00:50:37.581Z,20.24
2018-05-15T00:51:03.751Z,20.22
2018-05-15T00:51:29.892Z,20.34
2018-05-15T00:51:56.032Z,20.24
2018-05-15T00:52:22.175Z,20.18
2018-05-15T00:52:48.313Z,20.24
2018-05-15T00:53:14.452Z,20.24
2018-05-15T00:53:40.587Z,20.25
2018-05-15T00:54:06.744Z,20.22
2018-05-15T00:54:32.883Z,20.24
2018-05-15T00:54:59.026Z,20.18
2018-05-15T00:55:25.161Z,20.19
2018-05-15T00:55:51.300Z,20.21
2018-05-15T00:56:17.458Z,20.19
2018-05-15T00:56:43.607Z,20.19
2018-05-15T00:57:09.746Z,20.19
2018-05-15T00:57:35.889Z,20.11
2018-05-15T00:58:02.027Z,20.14
2018-05-15T00:58:28.176Z,20.06
2018-05-15T00:58:54.313Z,20.1
2018-05-15T00:59:20.476Z,20.11
2018-05-15T00:59:46.606Z,20.11
2018-05-15T01:00:12.751Z,20.1
2018-05-15T01:00:38.892Z,20.14
2018-05-15T01:01:05.031Z,20.09
2018-05-15T01:01:31.178Z,20.19
2018-05-15T01:01:57.306Z,20.16
2018-05-15T01:02:23.431Z,20.13
2018-05-15T01:02:49.573Z,20.16
2018-05-15T01:03:15.737Z,20.18
2018-05-15T01:03:41.880Z,20.07
2018-05-15T01:04:08.022Z,20.1
2018-05-15T01:04:34.207Z,20.18
2018-05-15T01:05:00.375Z,20.16
2018-05-15T01:05:26.518Z,20.06
2018-05-15T01:05:52.650Z,20.02
2018-05-15T01:06:18.819Z,19.92
2018-05-15T01:06:44.955Z,19.92
2018-05-15T01:07:11.118Z,20.03
2018-05-15T01:07:37.262Z,19.89
2018-05-15T01:08:03.398Z,19.91
2018-05-15T01:08:29.542Z,19.89
2018-05-15T01:08:55.680Z,19.79
2018-05-15T01:09:21.815Z,19.84
2018-05-15T01:09:47.958Z,19.79
2018-05-15T01:10:14.099Z,19.82
2018-05-15T01:10:40.260Z,19.94
2018-05-15T01:11:06.401Z,19.92
2018-05-15T01:11:32.539Z,19.89
2018-05-15T01:11:58.686Z,19.95
2018-05-15T01:12:24.847Z,19.89
2018-05-15T01:12:50.988Z,19.85
2018-05-15T01:13:17.133Z,19.82
2018-05-15T01:13:43.271Z,19.71
2018-05-15T01:14:09.411Z,19.81
2018-05-15T01:14:35.581Z,19.7
2018-05-15T01:15:01.721Z,19.74
2018-05-15T01:15:27.851Z,19.76
2018-05-15T01:15:53.998Z,19.71
2018-05-15T01:16:20.158Z,19.7
2018-05-15T01:16:46.296Z,19.7
2018-05-15T01:17:12.437Z,19.67
2018-05-15T01:17:38.629Z,19.69
2018-05-15T01:18:04.771Z,19.76
2018-05-15T01:18:30.905Z,19.82
2018-05-15T01:18:57.076Z,19.79
2018-05-15T01:19:23.216Z,19.82
2018-05-15T01:19:49.350Z,19.82
2018-05-15T01:20:15.519Z,19.76
2018-05-15T01:20:41.684Z,19.85
2018-05-15T01:21:07.831Z,19.84
2018-05-15T01:21:34.001Z,19.82
2018-05-15T01:22:00.145Z,19.84
2018-05-15T01:22:26.281Z,19.79
2018-05-15T01:22:52.423Z,19.7
2018-05-15T01:23:18.569Z,19.64
2018-05-15T01:23:44.704Z,19.67
2018-05-15T01:24:10.846Z,19.59
2018-05-15T01:24:37.006Z,19.55
2018-05-15T01:25:03.143Z,19.59
2018-05-15T01:25:29.280Z,19.59
2018-05-15T01:25:55.427Z,19.62
2018-05-15T01:26:21.570Z,19.59
2018-05-15T01:26:47.699Z,19.59
2018-05-15T01:27:13.875Z,19.62
2018-05-15T01:27:40.037Z,19.56
2018-05-15T01:28:06.195Z,19.62
2018-05-15T01:28:32.342Z,19.52
2018-05-15T01:28:58.504Z,19.41
2018-05-15T01:29:24.640Z,19.52
2018-05-15T01:29:50.783Z,19.51
2018-05-15T01:30:16.949Z,19.41
2018-05-15T01:30:43.108Z,19.39
2018-05-15T01:31:09.252Z,19.44
2018-05-15T01:31:35.436Z,19.41
2018-05-15T01:32:01.597Z,19.37
2018-05-15T01:32:27.765Z,19.45
2018-05-15T01:32:53.908Z,19.4
2018-05-15T01:33:20.070Z,19.39
2018-05-15T01:33:46.207Z,19.41
2018-05-15T01:34:12.346Z,19.49
2018-05-15T01:34:38.486Z,19.52
2018-05-15T01:35:04.629Z,19.49
2018-05-15T01:35:30.774Z,19.56
2018-05-15T01:35:56.935Z,19.51
2018-05-15T01:36:23.107Z,19.54
2018-05-15T01:36:49.239Z,19.51
2018-05-15T01:37:15.374Z,19.51
2018-05-15T01:37:41.520Z,19.52
2018-05-15T01:38:07.688Z,19.55
2018-05-15T01:38:33.849Z,19.54
2018-05-15T01:38:59.984Z,19.51
2018-05-15T01:39:26.121Z,19.49
2018-05-15T01:39:52.283Z,19.51
2018-05-15T01:40:18.421Z,19.44
2018-05-15T01:40:44.648Z,19.48
2018-05-15T01:41:10.695Z,19.44
2018-05-15T01:41:36.834Z,19.48
2018-05-15T01:42:02.976Z,19.4
2018-05-15T01:42:29.148Z,19.55
2018-05-15T01:42:55.287Z,19.47
2018-05-15T01:43:21.447Z,19.52
2018-05-15T01:43:47.581Z,19.51
2018-05-15T01:44:13.719Z,19.45
2018-05-15T01:44:39.861Z,19.36
2018-05-15T01:45:05.992Z,19.4
2018-05-15T01:45:32.130Z,19.48
2018-05-15T01:45:58.270Z,19.27
2018-05-15T01:46:24.416Z,19.31
2018-05-15T01:46:50.587Z,19.33
2018-05-15T01:47:16.726Z,19.34
2018-05-15T01:47:42.861Z,19.36
2018-05-15T01:48:09.003Z,19.37
2018-05-15T01:48:35.138Z,19.3
2018-05-15T01:49:01.288Z,19.44
2018-05-15T01:49:27.422Z,19.34
2018-05-15T01:49:53.565Z,19.39
2018-05-15T01:50:19.709Z,19.3
2018-05-15T01:50:45.848Z,19.26
2018-05-15T01:51:12.011Z,19.34
2018-05-15T01:51:38.155Z,19.31
2018-05-15T01:52:04.294Z,19.26
2018-05-15T01:52:30.454Z,19.33
2018-05-15T01:52:56.619Z,19.3
2018-05-15T01:53:22.778Z,19.29
2018-05-15T01:53:48.921Z,19.26
2018-05-15T01:54:15.075Z,19.22
2018-05-15T01:54:41.243Z,19.29
2018-05-15T01:55:07.399Z,19.26
2018-05-15T01:55:33.541Z,19.12
2018-05-15T01:55:59.678Z,19.16
2018-05-15T01:56:25.842Z,19.09
2018-05-15T01:56:51.984Z,19.08
2018-05-15T01:57:18.126Z,19.11
2018-05-15T01:57:44.268Z,19.08
2018-05-15T01:58:10.400Z,19.12
2018-05-15T01:58:36.547Z,19.14
2018-05-15T01:59:02.682Z,19.18
2018-05-15T01:59:28.819Z,19.19
2018-05-15T01:59:54.963Z,19.22
2018-05-15T02:00:21.103Z,19.19
2018-05-15T02:00:47.259Z,19.14
2018-05-15T02:01:13.407Z,19.12
2018-05-15T02:01:39.560Z,19.22
2018-05-15T02:02:05.723Z,19.11
2018-05-15T02:02:31.860Z,19.14
2018-05-15T02:02:58.037Z,19.09
2018-05-15T02:03:24.172Z,19.18
2018-05-15T02:03:50.331Z,19.09
2018-05-15T02:04:16.477Z,19.08
2018-05-15T02:04:42.660Z,19.07
2018-05-15T02:05:08.805Z,19.09
2018-05-15T02:05:34.940Z,19.08
2018-05-15T02:06:01.082Z,19.08
2018-05-15T02:06:27.221Z,19.12
2018-05-15T02:06:53.360Z,18.96
2018-05-15T02:07:19.503Z,19
2018-05-15T02:07:45.643Z,19.02
2018-05-15T02:08:11.776Z,19.09
2018-05-15T02:08:37.916Z,19.14
2018-05-15T02:09:04.053Z,19.04
2018-05-15T02:09:30.195Z,19.09
2018-05-15T02:09:56.327Z,19.07
2018-05-15T02:10:22.472Z,19.12
2018-05-15T02:10:48.603Z,19.11
2018-05-15T02:11:14.742Z,19.08
2018-05-15T02:11:40.881Z,19.08
2018-05-15T02:12:07.019Z,19.12
2018-05-15T02:12:33.158Z,19.08
2018-05-15T02:12:59.298Z,19.12
2018-05-15T02:13:25.433Z,19.14
2018-05-15T02:13:51.574Z,19.09
2018-05-15T02:14:17.718Z,19.07
2018-05-15T02:14:43.852Z,19
2018-05-15T02:15:09.993Z,19.11
2018-05-15T02:15:36.129Z,19
2018-05-15T02:16:02.280Z,19.02
2018-05-15T02:16:28.440Z,19.09
2018-05-15T02:16:54.593Z,19.07
2018-05-15T02:17:20.725Z,19.04
2018-05-15T02:17:46.856Z,19
2018-05-15T02:18:13.029Z,19.08
2018-05-15T02:18:39.168Z,19.04
2018-05-15T02:19:05.340Z,19.08
2018-05-15T02:19:31.531Z,19.12
2018-05-15T02:19:57.672Z,19.11
2018-05-15T02:20:23.813Z,19.14
2018-05-15T02:20:49.950Z,19.04
2018-05-15T02:21:16.089Z,19.08
2018-05-15T02:21:42.229Z,19.15
2018-05-15T02:22:08.372Z,19.07
2018-05-15T02:22:34.540Z,18.96
2018-05-15T02:23:00.676Z,19.11
2018-05-15T02:23:26.817Z,19.04
2018-05-15T02:23:52.955Z,19.04
2018-05-15T02:24:19.098Z,19.07
2018-05-15T02:24:45.241Z,19.07
2018-05-15T02:25:11.374Z,19
2018-05-15T02:25:37.534Z,18.89
2018-05-15T02:26:03.680Z,18.88
2018-05-15T02:26:29.818Z,18.96
2018-05-15T02:26:55.954Z,18.89
2018-05-15T02:27:22.093Z,18.93
2018-05-15T02:27:48.264Z,18.88
2018-05-15T02:28:14.398Z,18.9
2018-05-15T02:28:40.543Z,18.86
2018-05-15T02:29:06.682Z,18.8
2018-05-15T02:29:32.824Z,18.9
2018-05-15T02:29:58.958Z,18.89
2018-05-15T02:30:25.155Z,18.75
2018-05-15T02:30:51.235Z,18.78
2018-05-15T02:31:17.407Z,18.81
2018-05-15T02:31:43.569Z,18.77
2018-05-15T02:32:09.711Z,18.84
2018-05-15T02:32:35.893Z,18.86
2018-05-15T02:33:02.049Z,18.81
2018-05-15T02:33:28.235Z,18.83
2018-05-15T02:33:54.405Z,18.77
2018-05-15T02:34:20.616Z,18.81
2018-05-15T02:34:46.770Z,18.81
2018-05-15T02:35:12.977Z,18.8
2018-05-15T02:35:39.099Z,18.86
2018-05-15T02:36:05.269Z,18.78
2018-05-15T02:36:31.449Z,18.84
2018-05-15T02:36:57.630Z,18.83
2018-05-15T02:37:23.783Z,18.8
2018-05-15T02:37:49.954Z,18.77
2018-05-15T02:38:16.134Z,18.83
2018-05-15T02:38:42.276Z,18.74
2018-05-15T02:39:08.444Z,18.83
2018-05-15T02:39:34.605Z,18.83
2018-05-15T02:40:00.767Z,18.83
2018-05-15T02:40:26.959Z,18.84
2018-05-15T02:40:53.166Z,18.81
2018-05-15T02:41:19.336Z,18.84
2018-05-15T02:41:45.505Z,18.86
2018-05-15T02:42:11.645Z,18.81
2018-05-15T02:42:37.828Z,18.84
2018-05-15T02:43:03.973Z,18.83
2018-05-15T02:43:30.141Z,18.8
2018-05-15T02:43:56.308Z,18.83
2018-05-15T02:44:22.468Z,18.83
2018-05-15T02:44:48.631Z,18.81
2018-05-15T02:45:14.796Z,18.84
2018-05-15T02:45:40.936Z,18.83
2018-05-15T02:46:07.073Z,18.74
2018-05-15T02:46:33.213Z,18.81
2018-05-15T02:46:59.351Z,18.81
2018-05-15T02:47:25.536Z,18.81
2018-05-15T02:47:51.689Z,18.81
2018-05-15T02:48:17.858Z,18.75
2018-05-15T02:48:44.024Z,18.88
2018-05-15T02:49:10.252Z,18.74
2018-05-15T02:49:36.423Z,18.75
2018-05-15T02:50:02.557Z,18.8
2018-05-15T02:50:28.699Z,18.81
2018-05-15T02:50:54.857Z,18.8
2018-05-15T02:51:21.000Z,18.73
2018-05-15T02:51:47.182Z,18.83
2018-05-15T02:52:13.375Z,18.7
2018-05-15T02:52:39.539Z,18.74
2018-05-15T02:53:05.696Z,18.8
2018-05-15T02:53:31.866Z,18.83
2018-05-15T02:53:58.050Z,18.83
2018-05-15T02:54:24.215Z,18.74
2018-05-15T02:54:50.377Z,18.77
2018-05-15T02:55:16.516Z,18.78
2018-05-15T02:55:42.641Z,18.81
2018-05-15T02:56:08.797Z,18.78
2018-05-15T02:56:34.941Z,18.74
2018-05-15T02:57:01.087Z,18.8
2018-05-15T02:57:27.211Z,18.81
2018-05-15T02:57:53.379Z,18.75
2018-05-15T02:58:19.509Z,18.78
2018-05-15T02:58:45.682Z,18.8
2018-05-15T02:59:11.844Z,18.75
2018-05-15T02:59:38.009Z,18.71
2018-05-15T03:00:04.200Z,18.75
2018-05-15T03:00:30.563Z,18.77
2018-05-15T03:00:56.849Z,18.71
2018-05-15T03:01:23.059Z,18.73
2018-05-15T03:01:49.516Z,18.74
2018-05-15T03:02:15.664Z,18.77
2018-05-15T03:02:41.946Z,18.73
2018-05-15T03:03:08.229Z,18.75
2018-05-15T03:03:34.493Z,18.78
2018-05-15T03:04:00.652Z,18.75
2018-05-15T03:04:26.914Z,18.73
2018-05-15T03:04:53.278Z,18.7
2018-05-15T03:05:19.565Z,18.75
2018-05-15T03:05:45.797Z,18.81
2018-05-15T03:06:11.950Z,18.71
2018-05-15T03:06:38.133Z,18.66
2018-05-15T03:07:04.266Z,18.74
2018-05-15T03:07:30.454Z,18.8
2018-05-15T03:07:56.624Z,18.78
2018-05-15T03:08:22.755Z,18.78
2018-05-15T03:08:48.918Z,18.75
2018-05-15T03:09:15.063Z,18.84
2018-05-15T03:09:41.233Z,18.8
2018-05-15T03:10:07.460Z,18.86
2018-05-15T03:10:33.648Z,18.81
2018-05-15T03:10:59.789Z,18.86
2018-05-15T03:11:25.974Z,18.81
2018-05-15T03:11:52.114Z,18.83
2018-05-15T03:12:18.253Z,18.84
2018-05-15T03:12:44.410Z,18.77
2018-05-15T03:13:10.591Z,18.8
2018-05-15T03:13:36.765Z,18.78
2018-05-15T03:14:02.927Z,18.78
2018-05-15T03:14:29.062Z,18.75
2018-05-15T03:14:55.249Z,18.83
2018-05-15T03:15:21.387Z,18.81
2018-05-15T03:15:47.532Z,18.88
2018-05-15T03:16:13.667Z,18.88
2018-05-15T03:16:39.853Z,18.84
2018-05-15T03:17:05.997Z,18.78
2018-05-15T03:17:32.177Z,18.8
2018-05-15T03:17:58.319Z,18.81
2018-05-15T03:18:24.463Z,18.81
2018-05-15T03:18:50.598Z,18.8
2018-05-15T03:19:16.738Z,18.81
2018-05-15T03:19:42.879Z,18.74
2018-05-15T03:20:09.028Z,18.7
2018-05-15T03:20:35.163Z,18.71
2018-05-15T03:21:01.299Z,18.71
2018-05-15T03:21:27.441Z,18.86
2018-05-15T03:21:53.577Z,18.83
2018-05-15T03:22:19.717Z,18.74
2018-05-15T03:22:45.856Z,18.78
2018-05-15T03:23:11.999Z,18.66
2018-05-15T03:23:38.180Z,18.8
2018-05-15T03:24:04.324Z,18.8
2018-05-15T03:24:30.471Z,18.73
2018-05-15T03:24:56.599Z,18.71
2018-05-15T03:25:22.747Z,18.68
2018-05-15T03:25:48.911Z,18.66
2018-05-15T03:26:15.049Z,18.74
2018-05-15T03:26:41.189Z,18.75
2018-05-15T03:27:07.333Z,18.73
2018-05-15T03:27:33.471Z,18.68
2018-05-15T03:27:59.606Z,18.77
2018-05-15T03:28:25.744Z,18.73
2018-05-15T03:28:51.909Z,18.74
2018-05-15T03:29:18.050Z,18.77
2018-05-15T03:29:44.189Z,18.73
2018-05-15T03:30:10.338Z,18.74
2018-05-15T03:30:36.495Z,18.8
2018-05-15T03:31:02.679Z,18.73
2018-05-15T03:31:28.827Z,18.78
2018-05-15T03:31:55.023Z,18.81
2018-05-15T03:32:21.175Z,18.75
2018-05-15T03:32:47.311Z,18.77
2018-05-15T03:33:13.452Z,18.74
2018-05-15T03:33:39.617Z,18.75
2018-05-15T03:34:05.790Z,18.78
2018-05-15T03:34:31.917Z,18.78
2018-05-15T03:34:58.053Z,18.75
2018-05-15T03:35:24.194Z,18.74
2018-05-15T03:35:50.335Z,18.77
2018-05-15T03:36:16.475Z,18.8
2018-05-15T03:36:42.617Z,18.71
2018-05-15T03:37:08.753Z,18.8
2018-05-15T03:37:34.892Z,18.75
2018-05-15T03:38:01.030Z,18.77
2018-05-15T03:38:27.166Z,18.74
2018-05-15T03:38:53.309Z,18.75
2018-05-15T03:39:19.449Z,18.78
2018-05-15T03:39:45.593Z,18.77
2018-05-15T03:40:11.784Z,18.78
2018-05-15T03:40:37.924Z,18.74
2018-05-15T03:41:04.089Z,18.77
2018-05-15T03:41:30.234Z,18.75
2018-05-15T03:41:56.438Z,18.66
2018-05-15T03:42:22.512Z,18.7
2018-05-15T03:42:48.652Z,18.73
2018-05-15T03:43:14.816Z,18.63
2018-05-15T03:43:40.952Z,18.59
2018-05-15T03:44:07.142Z,18.62
2018-05-15T03:44:33.289Z,18.53
2018-05-15T03:44:59.414Z,18.7
2018-05-15T03:45:25.552Z,18.7
2018-05-15T03:45:51.694Z,18.62
2018-05-15T03:46:17.839Z,18.62
2018-05-15T03:46:43.970Z,18.58
2018-05-15T03:47:10.113Z,18.56
2018-05-15T03:47:36.251Z,18.58
2018-05-15T03:48:02.389Z,18.55
2018-05-15T03:48:28.527Z,18.55
2018-05-15T03:48:54.662Z,18.58
2018-05-15T03:49:20.803Z,18.52
2018-05-15T03:49:46.940Z,18.53
2018-05-15T03:50:13.086Z,18.5
2018-05-15T03:50:39.221Z,18.53
2018-05-15T03:51:05.356Z,18.5
2018-05-15T03:51:31.499Z,18.58
2018-05-15T03:51:57.638Z,18.53
2018-05-15T03:52:23.783Z,18.56
2018-05-15T03:52:49.918Z,18.52
2018-05-15T03:53:16.091Z,18.63
2018-05-15T03:53:42.232Z,18.6
2018-05-15T03:54:08.371Z,18.52
2018-05-15T03:54:34.508Z,18.52
2018-05-15T03:55:00.673Z,18.58
2018-05-15T03:55:26.831Z,18.56
2018-05-15T03:55:52.979Z,18.52
2018-05-15T03:56:19.135Z,18.53
2018-05-15T03:56:45.272Z,18.52
2018-05-15T03:57:11.459Z,18.5
2018-05-15T03:57:37.626Z,18.45
2018-05-15T03:58:03.764Z,18.5
2018-05-15T03:58:29.906Z,18.47
2018-05-15T03:58:56.053Z,18.53
2018-05-15T03:59:22.190Z,18.5
2018-05-15T03:59:48.334Z,18.52
2018-05-15T04:00:14.463Z,18.47
2018-05-15T04:00:40.606Z,18.49
2018-05-15T04:01:06.769Z,18.37
2018-05-15T04:01:32.925Z,18.55
2018-05-15T04:01:59.081Z,18.45
2018-05-15T04:02:25.263Z,18.49
2018-05-15T04:02:51.408Z,18.47
2018-05-15T04:03:17.542Z,18.49
2018-05-15T04:03:43.687Z,18.47
2018-05-15T04:04:09.855Z,18.53
2018-05-15T04:04:35.993Z,18.52
2018-05-15T04:05:02.130Z,18.5
2018-05-15T04:05:28.273Z,18.58
2018-05-15T04:05:54.413Z,18.5
2018-05-15T04:06:20.549Z,18.59
2018-05-15T04:06:46.688Z,18.56
2018-05-15T04:07:12.856Z,18.53
2018-05-15T04:07:39.011Z,18.6
2018-05-15T04:08:05.175Z,18.56
2018-05-15T04:08:31.366Z,18.52
2018-05-15T04:08:57.460Z,18.52
2018-05-15T04:09:23.592Z,18.58
2018-05-15T04:09:49.755Z,18.45
2018-05-15T04:10:15.888Z,18.37
2018-05-15T04:10:42.024Z,18.38
2018-05-15T04:11:08.231Z,18.41
2018-05-15T04:11:34.330Z,18.43
2018-05-15T04:12:00.489Z,18.45
2018-05-15T04:12:26.625Z,18.4
2018-05-15T04:12:52.785Z,18.41
2018-05-15T04:13:18.923Z,18.44
2018-05-15T04:13:45.090Z,18.4
2018-05-15T04:14:11.229Z,18.45
2018-05-15T04:14:37.391Z,18.4
2018-05-15T04:15:03.536Z,18.49
2018-05-15T04:15:29.670Z,18.5
2018-05-15T04:15:55.830Z,18.52
2018-05-15T04:16:21.969Z,18.47
2018-05-15T04:16:48.114Z,18.5
2018-05-15T04:17:14.274Z,18.52
2018-05-15T04:17:40.414Z,18.56
2018-05-15T04:18:06.574Z,18.52
2018-05-15T04:18:32.715Z,18.5
2018-05-15T04:18:58.852Z,18.52
2018-05-15T04:19:25.032Z,18.55
2018-05-15T04:19:51.154Z,18.55
2018-05-15T04:20:17.309Z,18.53
2018-05-15T04:20:43.454Z,18.56
2018-05-15T04:21:09.615Z,18.53
2018-05-15T04:21:35.760Z,18.56
2018-05-15T04:22:01.923Z,18.59
2018-05-15T04:22:28.071Z,18.52
2018-05-15T04:22:54.211Z,18.5
2018-05-15T04:23:20.375Z,18.53
2018-05-15T04:23:46.514Z,18.55
2018-05-15T04:24:12.657Z,18.49
2018-05-15T04:24:38.798Z,18.52
2018-05-15T04:25:04.938Z,18.5
2018-05-15T04:25:31.073Z,18.49
2018-05-15T04:25:57.222Z,18.5
2018-05-15T04:26:23.385Z,18.5
2018-05-15T04:26:49.526Z,18.5
2018-05-15T04:27:15.668Z,18.53
2018-05-15T04:27:41.804Z,18.45
2018-05-15T04:28:07.977Z,18.44
2018-05-15T04:28:34.129Z,18.47
2018-05-15T04:29:00.298Z,18.5
2018-05-15T04:29:26.442Z,18.49
2018-05-15T04:29:52.604Z,18.56
2018-05-15T04:30:18.742Z,18.53
2018-05-15T04:30:44.876Z,18.52
2018-05-15T04:31:11.016Z,18.55
2018-05-15T04:31:37.153Z,18.53
2018-05-15T04:32:03.295Z,18.52
2018-05-15T04:32:29.436Z,18.56
2018-05-15T04:32:55.577Z,18.56
2018-05-15T04:33:21.716Z,18.55
2018-05-15T04:33:47.859Z,18.49
2018-05-15T04:34:13.999Z,18.53
2018-05-15T04:34:40.166Z,18.65
2018-05-15T04:35:06.398Z,18.6
2018-05-15T04:35:32.540Z,18.59
2018-05-15T04:35:58.684Z,18.65
2018-05-15T04:36:24.821Z,18.63
2018-05-15T04:36:50.995Z,18.6
2018-05-15T04:37:17.160Z,18.5
2018-05-15T04:37:43.338Z,18.5
2018-05-15T04:38:09.469Z,18.5
2018-05-15T04:38:35.605Z,18.56
2018-05-15T04:39:01.753Z,18.63
2018-05-15T04:39:27.888Z,18.68
2018-05-15T04:39:54.023Z,18.62
2018-05-15T04:40:20.164Z,18.56
2018-05-15T04:40:46.305Z,18.56
2018-05-15T04:41:12.445Z,18.6
2018-05-15T04:41:38.586Z,18.55
2018-05-15T04:42:04.721Z,18.68
2018-05-15T04:42:30.864Z,18.59
2018-05-15T04:42:57.004Z,18.63
2018-05-15T04:43:23.178Z,18.56
2018-05-15T04:43:49.547Z,18.52
2018-05-15T04:44:15.476Z,18.66
2018-05-15T04:44:41.613Z,18.62
2018-05-15T04:45:07.785Z,18.59
2018-05-15T04:45:33.923Z,18.59
2018-05-15T04:46:00.065Z,18.62
2018-05-15T04:46:26.206Z,18.62
2018-05-15T04:46:52.369Z,18.62
2018-05-15T04:47:18.532Z,18.65
2018-05-15T04:47:44.679Z,18.52
2018-05-15T04:48:10.833Z,18.52
2018-05-15T04:48:36.968Z,18.49
2018-05-15T04:49:03.114Z,18.5
2018-05-15T04:49:29.268Z,18.52
2018-05-15T04:49:55.436Z,18.47
2018-05-15T04:50:21.591Z,18.49
2018-05-15T04:50:47.750Z,18.53
2018-05-15T04:51:13.896Z,18.52
2018-05-15T04:51:40.027Z,18.56
2018-05-15T04:52:06.167Z,18.53
2018-05-15T04:52:32.314Z,18.52
2018-05-15T04:52:58.457Z,18.5
2018-05-15T04:53:24.592Z,18.52
2018-05-15T04:53:50.730Z,18.55
2018-05-15T04:54:16.872Z,18.5
2018-05-15T04:54:43.014Z,18.53
2018-05-15T04:55:09.169Z,18.49
2018-05-15T04:55:35.400Z,18.5
2018-05-15T04:56:01.495Z,18.52
2018-05-15T04:56:27.635Z,18.52
2018-05-15T04:56:53.773Z,18.53
2018-05-15T04:57:19.905Z,18.5
2018-05-15T04:57:46.047Z,18.56
2018-05-15T04:58:12.179Z,18.47
2018-05-15T04:58:38.346Z,18.47
2018-05-15T04:59:04.487Z,18.55
2018-05-15T04:59:30.655Z,18.55
2018-05-15T04:59:56.794Z,18.56
2018-05-15T05:00:22.959Z,18.41
2018-05-15T05:00:49.109Z,18.41
2018-05-15T05:01:15.269Z,18.4
2018-05-15T05:01:41.406Z,18.4
2018-05-15T05:02:07.619Z,18.45
2018-05-15T05:02:33.708Z,18.38
2018-05-15T05:02:59.851Z,18.45
2018-05-15T05:03:25.994Z,18.45
2018-05-15T05:03:52.129Z,18.52
2018-05-15T05:04:18.300Z,18.52
2018-05-15T05:04:44.436Z,18.56
2018-05-15T05:05:10.578Z,18.52
2018-05-15T05:05:36.725Z,18.55
2018-05-15T05:06:02.863Z,18.55
2018-05-15T05:06:29.004Z,18.5
2018-05-15T05:06:55.145Z,18.5
2018-05-15T05:07:21.316Z,18.52
2018-05-15T05:07:47.533Z,18.52
2018-05-15T05:08:13.577Z,18.62
2018-05-15T05:08:39.722Z,18.68
2018-05-15T05:09:05.887Z,18.68
2018-05-15T05:09:32.037Z,18.71
2018-05-15T05:09:58.174Z,18.77
2018-05-15T05:10:24.336Z,18.65
2018-05-15T05:10:50.482Z,18.63
2018-05-15T05:11:16.628Z,18.65
2018-05-15T05:11:42.798Z,18.68
2018-05-15T05:12:08.906Z,18.68
2018-05-15T05:12:35.073Z,18.53
2018-05-15T05:13:01.211Z,18.56
2018-05-15T05:13:27.375Z,18.59
2018-05-15T05:13:53.516Z,18.6
2018-05-15T05:14:19.659Z,18.59
2018-05-15T05:14:45.825Z,18.65
2018-05-15T05:15:11.986Z,18.59
2018-05-15T05:15:38.129Z,18.52
2018-05-15T05:16:04.268Z,18.6
2018-05-15T05:16:30.429Z,18.6
2018-05-15T05:16:56.597Z,18.58
2018-05-15T05:17:22.761Z,18.68
2018-05-15T05:17:48.981Z,18.65
2018-05-15T05:18:15.066Z,18.73
2018-05-15T05:18:41.207Z,18.75
2018-05-15T05:19:07.355Z,18.74
2018-05-15T05:19:33.507Z,18.78
2018-05-15T05:19:59.632Z,18.75
2018-05-15T05:20:25.767Z,18.73
2018-05-15T05:20:51.910Z,18.71
2018-05-15T05:21:18.079Z,18.74
2018-05-15T05:21:44.266Z,18.75
2018-05-15T05:22:10.398Z,18.74
2018-05-15T05:22:36.564Z,18.71
2018-05-15T05:23:02.706Z,18.78
2018-05-15T05:23:28.874Z,18.78
2018-05-15T05:23:55.018Z,18.81
2018-05-15T05:24:22.062Z,18.8
2018-05-15T05:24:48.596Z,18.86
2018-05-15T05:25:14.770Z,18.83
2018-05-15T05:25:40.955Z,18.83
2018-05-15T05:26:07.121Z,18.8
2018-05-15T05:26:33.260Z,18.81
2018-05-15T05:26:59.399Z,18.88
2018-05-15T05:27:25.535Z,18.86
2018-05-15T05:27:51.709Z,18.81
2018-05-15T05:28:17.825Z,18.8
2018-05-15T05:28:43.967Z,18.84
2018-05-15T05:29:10.118Z,18.8
2018-05-15T05:29:36.287Z,18.84
2018-05-15T05:30:02.573Z,18.83
2018-05-15T05:30:28.704Z,18.83
2018-05-15T05:30:54.883Z,18.73
2018-05-15T05:31:21.027Z,18.71
2018-05-15T05:31:47.166Z,18.81
2018-05-15T05:32:13.314Z,18.74
2018-05-15T05:32:39.452Z,18.81
2018-05-15T05:33:05.603Z,18.81
2018-05-15T05:33:31.927Z,18.86
2018-05-15T05:33:57.991Z,18.93
2018-05-15T05:34:24.130Z,18.9
2018-05-15T05:34:50.270Z,18.93
2018-05-15T05:35:16.414Z,18.98
2018-05-15T05:35:42.555Z,19
2018-05-15T05:36:08.699Z,19.08
2018-05-15T05:36:34.860Z,19.08
2018-05-15T05:37:01.004Z,19.11
2018-05-15T05:37:27.223Z,19
2018-05-15T05:37:53.361Z,18.95
2018-05-15T05:38:19.573Z,19.09